sensor_id;sensor_type;location;lat;lon;timestamp;pressure;altitude;pressure_sealevel;temperature;humidity
1401;BME280;46518;48.842;8.926;2023-05-03T00:00:09;97945.41;;;10.95;77.72
1401;BME280;46518;48.842;8.926;2023-05-03T00:02:39;97949.31;;;11.04;78.22
1401;BME280;46518;48.842;8.926;2023-05-03T00:05:11;97954.47;;;10.99;77.91
1401;BME280;46518;48.842;8.926;2023-05-03T00:07:41;97949.28;;;10.92;78.56
1401;BME280;46518;48.842;8.926;2023-05-03T00:10:10;97943.94;;;10.99;78.46
1401;BME280;46518;48.842;8.926;2023-05-03T00:12:42;97955.72;;;10.96;78.91
1401;BME280;46518;48.842;8.926;2023-05-03T00:15:10;97950.31;;;11.03;77.88
1401;BME280;46518;48.842;8.926;2023-05-03T00:17:39;97952.41;;;11.01;78.98
1401;BME280;46518;48.842;8.926;2023-05-03T00:20:07;97950.91;;;10.93;78.63
1401;BME280;46518;48.842;8.926;2023-05-03T00:22:36;97947.03;;;10.96;78.61
1401;BME280;46518;48.842;8.926;2023-05-03T00:25:05;97950.31;;;11.03;78.96
1401;BME280;46518;48.842;8.926;2023-05-03T00:27:34;97942.00;;;11.06;78.62
1401;BME280;46518;48.842;8.926;2023-05-03T00:30:05;97945.31;;;11.13;78.57
1401;BME280;46518;48.842;8.926;2023-05-03T00:32:34;97941.75;;;11.08;78.58
1401;BME280;46518;48.842;8.926;2023-05-03T00:35:02;97941.53;;;11.09;78.29
1401;BME280;46518;48.842;8.926;2023-05-03T00:37:30;97923.56;;;11.06;78.00
1401;BME280;46518;48.842;8.926;2023-05-03T00:39:59;97930.63;;;11.06;78.36
1401;BME280;46518;48.842;8.926;2023-05-03T00:42:27;97929.13;;;10.98;78.43
1401;BME280;46518;48.842;8.926;2023-05-03T00:44:56;97931.66;;;11.05;78.29
1401;BME280;46518;48.842;8.926;2023-05-03T00:47:25;97918.59;;;10.98;78.14
1401;BME280;46518;48.842;8.926;2023-05-03T00:49:54;97919.53;;;10.92;78.04
1401;BME280;46518;48.842;8.926;2023-05-03T00:52:22;97916.78;;;10.98;78.16
1401;BME280;46518;48.842;8.926;2023-05-03T00:54:50;97912.78;;;10.96;78.20
1401;BME280;46518;48.842;8.926;2023-05-03T00:57:19;97916.31;;;10.90;78.08
1401;BME280;46518;48.842;8.926;2023-05-03T00:59:48;97915.97;;;10.86;78.52
1401;BME280;46518;48.842;8.926;2023-05-03T01:02:17;97911.84;;;10.78;78.67
1401;BME280;46518;48.842;8.926;2023-05-03T01:04:47;97917.56;;;10.87;78.09
1401;BME280;46518;48.842;8.926;2023-05-03T01:07:23;97917.00;;;10.73;78.93
1401;BME280;46518;48.842;8.926;2023-05-03T01:10:03;97916.28;;;10.78;78.44
1401;BME280;46518;48.842;8.926;2023-05-03T01:12:43;97913.53;;;10.73;79.05
1401;BME280;46518;48.842;8.926;2023-05-03T01:15:21;97917.28;;;10.65;78.93
1401;BME280;46518;48.842;8.926;2023-05-03T01:17:56;97921.22;;;10.74;79.07
1401;BME280;46518;48.842;8.926;2023-05-03T01:20:29;97918.09;;;10.66;78.95
1401;BME280;46518;48.842;8.926;2023-05-03T01:23:03;97906.75;;;10.53;79.18
1401;BME280;46518;48.842;8.926;2023-05-03T01:25:34;97915.31;;;10.61;79.63
1401;BME280;46518;48.842;8.926;2023-05-03T01:28:02;97909.97;;;10.67;78.20
1401;BME280;46518;48.842;8.926;2023-05-03T01:30:31;97913.56;;;10.43;79.56
1401;BME280;46518;48.842;8.926;2023-05-03T01:33:04;97916.25;;;10.54;78.73
1401;BME280;46518;48.842;8.926;2023-05-03T01:35:39;97908.88;;;10.45;78.65
1401;BME280;46518;48.842;8.926;2023-05-03T01:38:09;97913.69;;;10.48;79.11
1401;BME280;46518;48.842;8.926;2023-05-03T01:40:42;97897.56;;;10.44;78.86
1401;BME280;46518;48.842;8.926;2023-05-03T01:43:14;97899.00;;;10.28;79.40
1401;BME280;46518;48.842;8.926;2023-05-03T01:45:43;97893.88;;;10.33;79.48
1401;BME280;46518;48.842;8.926;2023-05-03T01:48:17;97897.44;;;10.21;80.55
1401;BME280;46518;48.842;8.926;2023-05-03T01:50:45;97903.59;;;10.14;80.81
1401;BME280;46518;48.842;8.926;2023-05-03T01:53:13;97904.28;;;10.28;79.90
1401;BME280;46518;48.842;8.926;2023-05-03T01:55:43;97900.97;;;10.14;79.68
1401;BME280;46518;48.842;8.926;2023-05-03T01:58:11;97899.16;;;10.15;79.96
1401;BME280;46518;48.842;8.926;2023-05-03T02:00:39;97902.44;;;10.10;80.09
1401;BME280;46518;48.842;8.926;2023-05-03T02:03:08;97902.97;;;10.01;80.12
1401;BME280;46518;48.842;8.926;2023-05-03T02:05:36;97905.03;;;9.99;80.21
1401;BME280;46518;48.842;8.926;2023-05-03T02:08:04;97900.22;;;9.77;80.82
1401;BME280;46518;48.842;8.926;2023-05-03T02:10:33;97898.03;;;9.74;81.25
1401;BME280;46518;48.842;8.926;2023-05-03T02:13:03;97896.56;;;9.78;81.35
1401;BME280;46518;48.842;8.926;2023-05-03T02:15:31;97902.94;;;9.70;81.32
1401;BME280;46518;48.842;8.926;2023-05-03T02:17:59;97896.28;;;9.68;82.51
1401;BME280;46518;48.842;8.926;2023-05-03T02:20:28;97891.31;;;9.60;82.63
1401;BME280;46518;48.842;8.926;2023-05-03T02:23:01;97890.38;;;9.72;82.30
1401;BME280;46518;48.842;8.926;2023-05-03T02:25:29;97894.63;;;9.74;82.92
1401;BME280;46518;48.842;8.926;2023-05-03T02:27:57;97898.69;;;9.69;83.03
1401;BME280;46518;48.842;8.926;2023-05-03T02:30:27;97888.91;;;9.77;82.83
1401;BME280;46518;48.842;8.926;2023-05-03T02:32:55;97894.81;;;9.72;82.60
1401;BME280;46518;48.842;8.926;2023-05-03T02:35:24;97883.88;;;9.75;83.29
1401;BME280;46518;48.842;8.926;2023-05-03T02:37:52;97888.97;;;9.70;83.62
1401;BME280;46518;48.842;8.926;2023-05-03T02:40:20;97888.69;;;9.78;83.28
1401;BME280;46518;48.842;8.926;2023-05-03T02:42:49;97881.47;;;9.74;83.45
1401;BME280;46518;48.842;8.926;2023-05-03T02:45:23;97885.91;;;9.73;82.82
1401;BME280;46518;48.842;8.926;2023-05-03T02:47:53;97886.28;;;9.58;82.83
1401;BME280;46518;48.842;8.926;2023-05-03T02:50:23;97888.03;;;9.64;82.96
1401;BME280;46518;48.842;8.926;2023-05-03T02:52:54;97886.06;;;9.60;83.28
1401;BME280;46518;48.842;8.926;2023-05-03T02:55:22;97880.81;;;9.60;83.28
1401;BME280;46518;48.842;8.926;2023-05-03T02:57:51;97883.44;;;9.60;83.64
1401;BME280;46518;48.842;8.926;2023-05-03T03:00:19;97881.53;;;9.67;83.48
1401;BME280;46518;48.842;8.926;2023-05-03T03:02:48;97886.97;;;9.54;83.55
1401;BME280;46518;48.842;8.926;2023-05-03T03:05:18;97892.50;;;9.64;83.56
1401;BME280;46518;48.842;8.926;2023-05-03T03:07:49;97883.88;;;9.57;82.98
1401;BME280;46518;48.842;8.926;2023-05-03T03:10:17;97888.19;;;9.51;83.34
1401;BME280;46518;48.842;8.926;2023-05-03T03:12:45;97893.00;;;9.36;84.34
1401;BME280;46518;48.842;8.926;2023-05-03T03:15:23;97885.50;;;9.39;83.85
1401;BME280;46518;48.842;8.926;2023-05-03T03:17:51;97896.66;;;9.35;84.08
1401;BME280;46518;48.842;8.926;2023-05-03T03:20:25;97892.84;;;9.31;84.06
1401;BME280;46518;48.842;8.926;2023-05-03T03:22:54;97888.97;;;9.33;84.98
1401;BME280;46518;48.842;8.926;2023-05-03T03:25:22;97887.59;;;9.31;85.13
1401;BME280;46518;48.842;8.926;2023-05-03T03:27:51;97893.28;;;9.27;85.42
1401;BME280;46518;48.842;8.926;2023-05-03T03:30:19;97897.53;;;9.28;85.74
1401;BME280;46518;48.842;8.926;2023-05-03T03:33:03;97893.50;;;9.26;84.77
1401;BME280;46518;48.842;8.926;2023-05-03T03:35:39;97893.66;;;9.31;85.55
1401;BME280;46518;48.842;8.926;2023-05-03T03:38:08;97886.94;;;9.17;85.70
1401;BME280;46518;48.842;8.926;2023-05-03T03:40:42;97899.19;;;9.23;85.31
1401;BME280;46518;48.842;8.926;2023-05-03T03:43:11;97901.66;;;9.18;85.54
1401;BME280;46518;48.842;8.926;2023-05-03T03:45:39;97909.84;;;9.28;85.40
1401;BME280;46518;48.842;8.926;2023-05-03T03:48:10;97911.41;;;9.11;85.81
1401;BME280;46518;48.842;8.926;2023-05-03T03:50:40;97916.66;;;9.11;86.15
1401;BME280;46518;48.842;8.926;2023-05-03T03:53:10;97918.50;;;9.10;87.03
1401;BME280;46518;48.842;8.926;2023-05-03T03:55:39;97913.72;;;9.00;87.24
1401;BME280;46518;48.842;8.926;2023-05-03T03:58:08;97922.56;;;9.06;87.52
1401;BME280;46518;48.842;8.926;2023-05-03T04:00:36;97921.72;;;9.12;87.42
1401;BME280;46518;48.842;8.926;2023-05-03T04:03:11;97920.91;;;9.12;87.42
1401;BME280;46518;48.842;8.926;2023-05-03T04:05:41;97921.66;;;9.19;87.08
1401;BME280;46518;48.842;8.926;2023-05-03T04:08:09;97925.84;;;9.26;86.89
1401;BME280;46518;48.842;8.926;2023-05-03T04:10:39;97926.69;;;9.20;87.08
1401;BME280;46518;48.842;8.926;2023-05-03T04:13:07;97931.88;;;9.27;87.01
1401;BME280;46518;48.842;8.926;2023-05-03T04:15:35;97927.28;;;9.22;86.74
1401;BME280;46518;48.842;8.926;2023-05-03T04:18:04;97930.50;;;9.24;86.91
1401;BME280;46518;48.842;8.926;2023-05-03T04:20:35;97929.84;;;9.29;86.37
1401;BME280;46518;48.842;8.926;2023-05-03T04:23:07;97928.47;;;9.26;86.84
1401;BME280;46518;48.842;8.926;2023-05-03T04:25:36;97930.59;;;9.36;86.49
1401;BME280;46518;48.842;8.926;2023-05-03T04:28:10;97929.56;;;9.37;86.41
1401;BME280;46518;48.842;8.926;2023-05-03T04:31:07;97932.41;;;9.36;85.46
1401;BME280;46518;48.842;8.926;2023-05-03T04:33:35;97934.50;;;9.27;85.99
1401;BME280;46518;48.842;8.926;2023-05-03T04:36:05;97933.63;;;9.33;85.80
1401;BME280;46518;48.842;8.926;2023-05-03T04:38:36;97931.28;;;9.25;86.47
1401;BME280;46518;48.842;8.926;2023-05-03T04:41:05;97936.34;;;9.26;85.84
1401;BME280;46518;48.842;8.926;2023-05-03T04:43:36;97933.78;;;9.38;86.07
1401;BME280;46518;48.842;8.926;2023-05-03T04:46:05;97928.75;;;9.37;86.27
1401;BME280;46518;48.842;8.926;2023-05-03T04:48:34;97931.97;;;9.39;85.93
1401;BME280;46518;48.842;8.926;2023-05-03T04:51:03;97936.41;;;9.38;85.92
1401;BME280;46518;48.842;8.926;2023-05-03T04:53:31;97931.97;;;9.39;86.28
1401;BME280;46518;48.842;8.926;2023-05-03T04:56:09;97932.69;;;9.46;86.69
1401;BME280;46518;48.842;8.926;2023-05-03T04:58:39;97931.03;;;9.52;86.27
1401;BME280;46518;48.842;8.926;2023-05-03T05:01:08;97930.97;;;9.58;85.49
1401;BME280;46518;48.842;8.926;2023-05-03T05:03:36;97936.00;;;9.60;85.72
1401;BME280;46518;48.842;8.926;2023-05-03T05:06:10;97939.81;;;9.64;85.79
1401;BME280;46518;48.842;8.926;2023-05-03T05:08:40;97937.41;;;9.62;85.87
1401;BME280;46518;48.842;8.926;2023-05-03T05:11:13;97940.97;;;9.68;85.62
1401;BME280;46518;48.842;8.926;2023-05-03T05:13:41;97940.97;;;9.68;85.91
1401;BME280;46518;48.842;8.926;2023-05-03T05:16:10;97942.06;;;9.60;85.77
1401;BME280;46518;48.842;8.926;2023-05-03T05:18:42;97944.91;;;9.59;85.32
1401;BME280;46518;48.842;8.926;2023-05-03T05:21:11;97946.16;;;9.75;85.50
1401;BME280;46518;48.842;8.926;2023-05-03T05:23:40;97944.47;;;9.80;85.08
1401;BME280;46518;48.842;8.926;2023-05-03T05:26:08;97940.84;;;9.81;84.59
1401;BME280;46518;48.842;8.926;2023-05-03T05:28:39;97938.69;;;9.90;84.09
1401;BME280;46518;48.842;8.926;2023-05-03T05:31:07;97949.06;;;9.85;84.14
1401;BME280;46518;48.842;8.926;2023-05-03T05:33:35;97953.69;;;9.89;84.21
1401;BME280;46518;48.842;8.926;2023-05-03T05:36:04;97952.59;;;9.97;84.19
1401;BME280;46518;48.842;8.926;2023-05-03T05:38:33;97952.78;;;9.96;83.99
1401;BME280;46518;48.842;8.926;2023-05-03T05:41:03;97942.28;;;9.96;83.74
1401;BME280;46518;48.842;8.926;2023-05-03T05:43:32;97947.91;;;9.99;83.54
1401;BME280;46518;48.842;8.926;2023-05-03T05:46:02;97943.06;;;10.14;83.59
1401;BME280;46518;48.842;8.926;2023-05-03T05:48:30;97945.91;;;10.13;83.79
1401;BME280;46518;48.842;8.926;2023-05-03T05:51:00;97937.22;;;10.12;82.86
1401;BME280;46518;48.842;8.926;2023-05-03T05:53:28;97938.38;;;10.17;83.29
1401;BME280;46518;48.842;8.926;2023-05-03T05:56:09;97938.28;;;10.23;83.24
1401;BME280;46518;48.842;8.926;2023-05-03T05:58:37;97945.53;;;10.28;82.99
1401;BME280;46518;48.842;8.926;2023-05-03T06:01:07;97945.16;;;10.24;82.80
1401;BME280;46518;48.842;8.926;2023-05-03T06:03:38;97947.31;;;10.34;83.35
1401;BME280;46518;48.842;8.926;2023-05-03T06:06:07;97946.97;;;10.42;83.02
1401;BME280;46518;48.842;8.926;2023-05-03T06:08:36;97952.13;;;10.37;82.78
1401;BME280;46518;48.842;8.926;2023-05-03T06:11:04;97952.63;;;10.27;83.32
1401;BME280;46518;48.842;8.926;2023-05-03T06:13:34;97948.03;;;10.41;83.20
1401;BME280;46518;48.842;8.926;2023-05-03T06:16:07;97945.66;;;10.51;83.37
1401;BME280;46518;48.842;8.926;2023-05-03T06:18:35;97943.34;;;10.55;82.90
1401;BME280;46518;48.842;8.926;2023-05-03T06:21:06;97948.88;;;10.65;82.80
1401;BME280;46518;48.842;8.926;2023-05-03T06:23:36;97946.63;;;10.69;82.28
1401;BME280;46518;48.842;8.926;2023-05-03T06:26:06;97941.25;;;10.75;82.87
1401;BME280;46518;48.842;8.926;2023-05-03T06:28:35;97945.16;;;10.85;82.54
1401;BME280;46518;48.842;8.926;2023-05-03T06:31:03;97952.00;;;10.86;82.44
1401;BME280;46518;48.842;8.926;2023-05-03T06:33:33;97950.75;;;10.88;82.16
1401;BME280;46518;48.842;8.926;2023-05-03T06:36:01;97950.00;;;10.99;81.72
1401;BME280;46518;48.842;8.926;2023-05-03T06:38:30;97950.44;;;11.08;81.71
1401;BME280;46518;48.842;8.926;2023-05-03T06:40:58;97955.59;;;11.03;81.17
1401;BME280;46518;48.842;8.926;2023-05-03T06:43:27;97953.91;;;11.09;81.55
1401;BME280;46518;48.842;8.926;2023-05-03T06:46:00;97952.63;;;11.23;81.25
1401;BME280;46518;48.842;8.926;2023-05-03T06:48:29;97954.94;;;11.19;81.31
1401;BME280;46518;48.842;8.926;2023-05-03T06:50:59;97949.00;;;11.36;81.02
1401;BME280;46518;48.842;8.926;2023-05-03T06:53:27;97947.59;;;11.45;80.34
1401;BME280;46518;48.842;8.926;2023-05-03T06:55:55;97946.69;;;11.51;80.09
1401;BME280;46518;48.842;8.926;2023-05-03T06:58:23;97941.75;;;11.55;79.79
1401;BME280;46518;48.842;8.926;2023-05-03T07:00:52;97937.97;;;11.62;79.42
1401;BME280;46518;48.842;8.926;2023-05-03T07:03:20;97941.41;;;11.63;79.45
1401;BME280;46518;48.842;8.926;2023-05-03T07:05:49;97940.91;;;11.78;79.64
1401;BME280;46518;48.842;8.926;2023-05-03T07:08:19;97944.13;;;11.68;79.10
1401;BME280;46518;48.842;8.926;2023-05-03T07:10:47;97938.84;;;11.80;79.52
1401;BME280;46518;48.842;8.926;2023-05-03T07:13:15;97935.31;;;11.86;79.18
1401;BME280;46518;48.842;8.926;2023-05-03T07:15:43;97937.81;;;11.93;79.87
1401;BME280;46518;48.842;8.926;2023-05-03T07:18:12;97930.34;;;12.01;79.66
1401;BME280;46518;48.842;8.926;2023-05-03T07:20:40;97934.09;;;12.05;79.53
1401;BME280;46518;48.842;8.926;2023-05-03T07:23:09;97925.28;;;12.12;79.41
1401;BME280;46518;48.842;8.926;2023-05-03T07:25:38;97934.66;;;12.19;78.76
1401;BME280;46518;48.842;8.926;2023-05-03T07:28:07;97927.25;;;12.04;78.97
1401;BME280;46518;48.842;8.926;2023-05-03T07:30:35;97927.06;;;12.23;78.15
1401;BME280;46518;48.842;8.926;2023-05-03T07:33:03;97924.88;;;12.20;78.51
1401;BME280;46518;48.842;8.926;2023-05-03T07:35:31;97918.88;;;12.36;78.32
1401;BME280;46518;48.842;8.926;2023-05-03T07:38:00;97921.28;;;12.55;78.07
1401;BME280;46518;48.842;8.926;2023-05-03T07:40:32;97921.81;;;12.68;77.74
1401;BME280;46518;48.842;8.926;2023-05-03T07:43:01;97920.84;;;12.74;77.41
1401;BME280;46518;48.842;8.926;2023-05-03T07:45:29;97923.00;;;12.78;77.13
1401;BME280;46518;48.842;8.926;2023-05-03T07:47:58;97920.44;;;12.83;76.57
1401;BME280;46518;48.842;8.926;2023-05-03T07:50:26;97919.25;;;12.90;76.33
1401;BME280;46518;48.842;8.926;2023-05-03T07:52:55;97925.16;;;12.98;75.96
1401;BME280;46518;48.842;8.926;2023-05-03T07:55:23;97920.44;;;13.00;75.35
1401;BME280;46518;48.842;8.926;2023-05-03T07:57:52;97923.88;;;13.17;75.70
1401;BME280;46518;48.842;8.926;2023-05-03T08:00:26;97916.69;;;13.29;75.81
1401;BME280;46518;48.842;8.926;2023-05-03T08:02:54;97910.75;;;13.39;74.35
1401;BME280;46518;48.842;8.926;2023-05-03T08:05:22;97920.84;;;13.42;73.26
1401;BME280;46518;48.842;8.926;2023-05-03T08:07:51;97911.69;;;13.50;73.00
1401;BME280;46518;48.842;8.926;2023-05-03T08:10:19;97916.00;;;13.56;72.94
1401;BME280;46518;48.842;8.926;2023-05-03T08:12:48;97920.88;;;13.64;72.73
1401;BME280;46518;48.842;8.926;2023-05-03T08:15:17;97915.88;;;13.68;72.72
1401;BME280;46518;48.842;8.926;2023-05-03T08:17:47;97924.44;;;13.75;72.59
1401;BME280;46518;48.842;8.926;2023-05-03T08:20:15;97916.50;;;13.97;72.18
1401;BME280;46518;48.842;8.926;2023-05-03T08:22:43;97920.44;;;13.72;71.19
1401;BME280;46518;48.842;8.926;2023-05-03T08:25:12;97921.56;;;13.76;71.49
1401;BME280;46518;48.842;8.926;2023-05-03T08:27:42;97917.91;;;13.82;71.14
1401;BME280;46518;48.842;8.926;2023-05-03T08:30:11;97920.09;;;13.86;71.40
1401;BME280;46518;48.842;8.926;2023-05-03T08:32:39;97926.13;;;14.03;71.13
1401;BME280;46518;48.842;8.926;2023-05-03T08:35:09;97922.97;;;14.06;71.44
1401;BME280;46518;48.842;8.926;2023-05-03T08:37:40;97914.63;;;14.19;70.99
1401;BME280;46518;48.842;8.926;2023-05-03T08:40:09;97914.34;;;14.16;70.25
1401;BME280;46518;48.842;8.926;2023-05-03T08:42:40;97915.44;;;14.20;70.28
1401;BME280;46518;48.842;8.926;2023-05-03T08:45:10;97918.94;;;14.26;70.18
1401;BME280;46518;48.842;8.926;2023-05-03T08:47:40;97923.78;;;14.34;70.67
1401;BME280;46518;48.842;8.926;2023-05-03T08:50:14;97923.09;;;14.43;69.83
1401;BME280;46518;48.842;8.926;2023-05-03T08:52:42;97929.09;;;14.34;69.34
1401;BME280;46518;48.842;8.926;2023-05-03T08:55:11;97929.88;;;14.34;70.73
1401;BME280;46518;48.842;8.926;2023-05-03T08:57:39;97930.94;;;14.33;70.49
1401;BME280;46518;48.842;8.926;2023-05-03T09:00:08;97937.97;;;14.50;69.73
1401;BME280;46518;48.842;8.926;2023-05-03T09:02:39;97933.97;;;14.69;69.31
1401;BME280;46518;48.842;8.926;2023-05-03T09:05:34;97927.41;;;14.77;68.98
1401;BME280;46518;48.842;8.926;2023-05-03T09:08:06;97914.63;;;14.69;69.31
1401;BME280;46518;48.842;8.926;2023-05-03T09:10:37;97914.75;;;14.84;68.55
1401;BME280;46518;48.842;8.926;2023-05-03T09:13:06;97916.44;;;14.95;68.61
1401;BME280;46518;48.842;8.926;2023-05-03T09:15:34;97916.47;;;15.00;68.55
1401;BME280;46518;48.842;8.926;2023-05-03T09:18:11;97915.13;;;14.98;67.72
1401;BME280;46518;48.842;8.926;2023-05-03T09:20:41;97917.53;;;15.04;68.97
1401;BME280;46518;48.842;8.926;2023-05-03T09:23:18;97921.13;;;15.20;68.64
1401;BME280;46518;48.842;8.926;2023-05-03T09:25:48;97919.81;;;15.23;67.45
1401;BME280;46518;48.842;8.926;2023-05-03T09:28:18;97915.56;;;15.27;67.42
1401;BME280;46518;48.842;8.926;2023-05-03T09:30:47;97915.38;;;15.34;66.63
1401;BME280;46518;48.842;8.926;2023-05-03T09:33:27;97904.22;;;15.37;66.50
1401;BME280;46518;48.842;8.926;2023-05-03T09:35:58;97913.63;;;15.54;66.38
1401;BME280;46518;48.842;8.926;2023-05-03T09:38:28;97912.56;;;15.50;65.16
1401;BME280;46518;48.842;8.926;2023-05-03T09:40:57;97909.44;;;15.64;65.19
1401;BME280;46518;48.842;8.926;2023-05-03T09:43:25;97901.22;;;15.65;65.45
1401;BME280;46518;48.842;8.926;2023-05-03T09:46:07;97918.47;;;15.68;64.18
1401;BME280;46518;48.842;8.926;2023-05-03T09:48:35;97915.00;;;15.67;64.70
1401;BME280;46518;48.842;8.926;2023-05-03T09:51:05;97917.47;;;15.79;64.50
1401;BME280;46518;48.842;8.926;2023-05-03T09:53:35;97910.09;;;15.91;64.15
1401;BME280;46518;48.842;8.926;2023-05-03T09:56:05;97898.91;;;15.84;63.69
1401;BME280;46518;48.842;8.926;2023-05-03T09:58:36;97910.69;;;16.04;63.22
1401;BME280;46518;48.842;8.926;2023-05-03T10:01:04;97912.00;;;16.01;61.98
1401;BME280;46518;48.842;8.926;2023-05-03T10:03:38;97913.06;;;16.00;61.75
1401;BME280;46518;48.842;8.926;2023-05-03T10:06:21;97910.94;;;16.07;62.36
1401;BME280;46518;48.842;8.926;2023-05-03T10:08:52;97907.50;;;16.07;61.83
1401;BME280;46518;48.842;8.926;2023-05-03T10:11:24;97913.31;;;15.99;61.49
1401;BME280;46518;48.842;8.926;2023-05-03T10:13:54;97910.94;;;16.07;62.04
1401;BME280;46518;48.842;8.926;2023-05-03T10:16:25;97909.13;;;16.18;62.06
1401;BME280;46518;48.842;8.926;2023-05-03T10:18:59;97908.63;;;16.31;61.82
1401;BME280;46518;48.842;8.926;2023-05-03T10:21:41;97905.41;;;16.24;60.33
1401;BME280;46518;48.842;8.926;2023-05-03T10:24:15;97908.88;;;16.30;60.99
1401;BME280;46518;48.842;8.926;2023-05-03T10:26:44;97902.53;;;16.36;61.10
1401;BME280;46518;48.842;8.926;2023-05-03T10:29:47;97902.78;;;16.45;60.84
1401;BME280;46518;48.842;8.926;2023-05-03T10:32:28;97891.38;;;16.59;59.92
1401;BME280;46518;48.842;8.926;2023-05-03T10:34:59;97894.88;;;16.70;59.68
1401;BME280;46518;48.842;8.926;2023-05-03T10:37:31;97891.16;;;16.87;60.34
1401;BME280;46518;48.842;8.926;2023-05-03T10:40:08;97885.59;;;16.93;58.75
1401;BME280;46518;48.842;8.926;2023-05-03T10:42:37;97886.91;;;17.01;58.46
1401;BME280;46518;48.842;8.926;2023-05-03T10:45:07;97879.16;;;17.30;59.48
1401;BME280;46518;48.842;8.926;2023-05-03T10:47:37;97877.25;;;17.41;58.59
1401;BME280;46518;48.842;8.926;2023-05-03T10:50:28;97880.72;;;17.36;56.71
1401;BME280;46518;48.842;8.926;2023-05-03T10:52:57;97879.94;;;17.31;55.64
1401;BME280;46518;48.842;8.926;2023-05-03T10:55:26;97867.69;;;17.40;56.00
1401;BME280;46518;48.842;8.926;2023-05-03T10:57:55;97877.00;;;17.42;54.77
1401;BME280;46518;48.842;8.926;2023-05-03T11:00:31;97867.13;;;17.48;54.61
1401;BME280;46518;48.842;8.926;2023-05-03T11:03:08;97868.13;;;17.67;54.48
1401;BME280;46518;48.842;8.926;2023-05-03T11:05:38;97859.00;;;17.79;53.95
1401;BME280;46518;48.842;8.926;2023-05-03T11:08:10;97859.00;;;17.79;54.18
1401;BME280;46518;48.842;8.926;2023-05-03T11:10:39;97852.63;;;17.85;54.35
1401;BME280;46518;48.842;8.926;2023-05-03T11:13:07;97840.59;;;17.98;55.69
1401;BME280;46518;48.842;8.926;2023-05-03T11:15:35;97846.09;;;18.06;55.17
1401;BME280;46518;48.842;8.926;2023-05-03T11:18:05;97838.09;;;18.11;54.25
1401;BME280;46518;48.842;8.926;2023-05-03T11:20:34;97842.59;;;18.16;53.55
1401;BME280;46518;48.842;8.926;2023-05-03T11:23:03;97844.66;;;18.24;50.82
1401;BME280;46518;48.842;8.926;2023-05-03T11:25:33;97831.63;;;18.23;50.13
1401;BME280;46518;48.842;8.926;2023-05-03T11:28:02;97837.94;;;18.37;50.76
1401;BME280;46518;48.842;8.926;2023-05-03T11:30:32;97830.97;;;18.41;50.94
1401;BME280;46518;48.842;8.926;2023-05-03T11:33:01;97827.94;;;18.14;52.13
1401;BME280;46518;48.842;8.926;2023-05-03T11:35:30;97837.81;;;18.13;51.21
1401;BME280;46518;48.842;8.926;2023-05-03T11:37:58;97842.00;;;18.24;52.03
1401;BME280;46518;48.842;8.926;2023-05-03T11:40:26;97825.69;;;18.31;52.10
1401;BME280;46518;48.842;8.926;2023-05-03T11:42:57;97836.16;;;18.57;52.50
1401;BME280;46518;48.842;8.926;2023-05-03T11:45:28;97825.50;;;18.57;49.87
1401;BME280;46518;48.842;8.926;2023-05-03T11:47:58;97827.91;;;18.58;48.44
1401;BME280;46518;48.842;8.926;2023-05-03T11:50:42;97816.00;;;18.74;48.67
1401;BME280;46518;48.842;8.926;2023-05-03T11:53:11;97823.09;;;18.89;48.97
1401;BME280;46518;48.842;8.926;2023-05-03T11:55:41;97810.91;;;18.83;47.55
1401;BME280;46518;48.842;8.926;2023-05-03T11:58:13;97811.44;;;19.09;48.24
1401;BME280;46518;48.842;8.926;2023-05-03T12:00:42;97816.09;;;18.99;48.46
1401;BME280;46518;48.842;8.926;2023-05-03T12:03:16;97814.78;;;18.96;48.82
1401;BME280;46518;48.842;8.926;2023-05-03T12:05:45;97812.09;;;18.96;47.49
1401;BME280;46518;48.842;8.926;2023-05-03T12:08:15;97813.47;;;18.93;46.47
1401;BME280;46518;48.842;8.926;2023-05-03T12:10:48;97823.63;;;18.91;46.50
1401;BME280;46518;48.842;8.926;2023-05-03T12:13:28;97821.31;;;18.85;45.26
1401;BME280;46518;48.842;8.926;2023-05-03T12:16:00;97818.44;;;18.76;45.84
1401;BME280;46518;48.842;8.926;2023-05-03T12:18:46;97820.31;;;18.75;46.11
1401;BME280;46518;48.842;8.926;2023-05-03T12:21:17;97808.56;;;18.77;48.48
1401;BME280;46518;48.842;8.926;2023-05-03T12:23:49;97823.41;;;18.88;48.58
1401;BME280;46518;48.842;8.926;2023-05-03T12:26:22;97812.91;;;18.96;46.72
1401;BME280;46518;48.842;8.926;2023-05-03T12:28:53;97798.16;;;19.04;45.58
1401;BME280;46518;48.842;8.926;2023-05-03T12:31:23;97795.16;;;19.11;44.50
1401;BME280;46518;48.842;8.926;2023-05-03T12:33:55;97788.22;;;19.10;46.26
1401;BME280;46518;48.842;8.926;2023-05-03T12:36:43;97786.44;;;19.24;45.95
1401;BME280;46518;48.842;8.926;2023-05-03T12:39:15;97789.19;;;19.43;45.10
1401;BME280;46518;48.842;8.926;2023-05-03T12:41:47;97780.63;;;19.65;44.30
1401;BME280;46518;48.842;8.926;2023-05-03T12:44:20;97770.63;;;19.76;44.14
1401;BME280;46518;48.842;8.926;2023-05-03T12:46:49;97785.50;;;19.82;43.93
1401;BME280;46518;48.842;8.926;2023-05-03T12:49:19;97781.94;;;19.87;43.21
1401;BME280;46518;48.842;8.926;2023-05-03T12:51:49;97780.28;;;19.91;42.27
1401;BME280;46518;48.842;8.926;2023-05-03T12:54:37;97782.44;;;19.89;41.29
1401;BME280;46518;48.842;8.926;2023-05-03T12:57:08;97771.06;;;20.02;42.06
1401;BME280;46518;48.842;8.926;2023-05-03T12:59:43;97773.22;;;20.00;41.00
1401;BME280;46518;48.842;8.926;2023-05-03T13:02:19;97765.19;;;20.00;43.57
1401;BME280;46518;48.842;8.926;2023-05-03T13:04:50;97757.66;;;20.21;43.19
1401;BME280;46518;48.842;8.926;2023-05-03T13:07:26;97765.81;;;20.30;43.04
1401;BME280;46518;48.842;8.926;2023-05-03T13:09:57;97762.44;;;20.05;42.12
1401;BME280;46518;48.842;8.926;2023-05-03T13:12:29;97763.31;;;19.81;42.07
1401;BME280;46518;48.842;8.926;2023-05-03T13:15:01;97760.09;;;19.85;42.50
1401;BME280;46518;48.842;8.926;2023-05-03T13:17:31;97763.03;;;20.02;42.42
1401;BME280;46518;48.842;8.926;2023-05-03T13:19:59;97754.34;;;20.10;42.35
1401;BME280;46518;48.842;8.926;2023-05-03T13:22:29;97755.84;;;20.16;42.01
1401;BME280;46518;48.842;8.926;2023-05-03T13:24:57;97752.22;;;20.26;41.08
1401;BME280;46518;48.842;8.926;2023-05-03T13:27:26;97747.00;;;20.35;39.95
1401;BME280;46518;48.842;8.926;2023-05-03T13:29:54;97747.91;;;20.44;39.03
1401;BME280;46518;48.842;8.926;2023-05-03T13:32:23;97744.28;;;20.54;38.80